createdAt,value
2023-02-04T00:00:31.020Z,55.97
2023-02-04T00:02:59.401Z,57.23
2023-02-04T00:05:27.560Z,56.67
2023-02-04T00:07:56.982Z,56.13
2023-02-04T00:10:25.030Z,58.80
2023-02-04T00:12:53.127Z,58.17
2023-02-04T00:15:21.380Z,57.43
2023-02-04T00:17:49.466Z,58.23
2023-02-04T00:20:19.664Z,57.17
2023-02-04T00:22:48.030Z,57.47
2023-02-04T00:25:17.782Z,56.40
2023-02-04T00:27:46.110Z,58.60
2023-02-04T00:30:15.597Z,57.87
2023-02-04T00:32:43.738Z,57.27
2023-02-04T00:35:16.779Z,56.93
2023-02-04T00:37:44.820Z,55.77
2023-02-04T00:40:13.959Z,56.73
2023-02-04T00:42:43.360Z,55.90
2023-02-04T00:45:12.464Z,54.97
2023-02-04T00:47:40.665Z,55.80
2023-02-04T00:50:09.182Z,54.77
2023-02-04T00:52:38.075Z,55.17
2023-02-04T00:55:08.014Z,55.53
2023-02-04T00:57:36.125Z,55.17
2023-02-04T01:00:07.228Z,54.83
2023-02-04T01:02:35.266Z,54.63
2023-02-04T01:05:03.349Z,54.53
2023-02-04T01:07:31.496Z,55.23
2023-02-04T01:10:00.152Z,54.13
2023-02-04T01:12:28.834Z,54.13
2023-02-04T01:14:57.294Z,54.27
2023-02-04T01:17:27.677Z,53.13
2023-02-04T01:19:55.729Z,51.97
2023-02-04T01:22:23.762Z,50.43
2023-02-04T01:24:51.855Z,50.13
2023-02-04T01:27:38.385Z,50.10
2023-02-04T01:30:07.602Z,48.87
2023-02-04T01:32:37.109Z,47.93
2023-02-04T01:35:06.058Z,46.63
2023-02-04T01:37:34.232Z,46.30
2023-02-04T01:40:02.321Z,46.17
2023-02-04T01:42:30.463Z,46.43
2023-02-04T01:44:58.774Z,45.03
2023-02-04T01:47:26.971Z,44.63
2023-02-04T01:49:57.091Z,45.07
2023-02-04T01:52:25.748Z,44.87
2023-02-04T01:54:54.650Z,43.90
2023-02-04T01:57:22.720Z,43.47
2023-02-04T01:59:53.719Z,42.73
2023-02-04T02:02:46.133Z,41.60
2023-02-04T02:05:21.211Z,41.70
2023-02-04T02:07:50.255Z,41.40
2023-02-04T02:10:19.227Z,41.67
2023-02-04T02:12:47.436Z,41.43
2023-02-04T02:15:16.719Z,41.03
2023-02-04T02:17:45.835Z,41.77
2023-02-04T02:20:17.996Z,41.20
2023-02-04T02:22:56.915Z,41.63
2023-02-04T02:25:26.353Z,42.00
2023-02-04T02:27:55.230Z,42.40
2023-02-04T02:30:23.696Z,42.53
2023-02-04T02:32:53.369Z,42.27
2023-02-04T02:35:22.378Z,42.67
2023-02-04T02:37:51.019Z,42.00
2023-02-04T02:40:20.000Z,42.17
2023-02-04T02:42:52.621Z,41.90
2023-02-04T02:45:25.264Z,41.00
2023-02-04T02:47:54.205Z,40.80
2023-02-04T02:50:27.517Z,40.30
2023-02-04T02:52:55.971Z,40.37
2023-02-04T02:55:26.912Z,39.90
2023-02-04T02:57:57.644Z,38.77
2023-02-04T03:00:29.039Z,38.90
2023-02-04T03:03:02.471Z,38.83
2023-02-04T03:05:33.638Z,37.97
2023-02-04T03:08:01.891Z,36.47
2023-02-04T03:10:30.454Z,35.90
2023-02-04T03:13:01.350Z,34.47
2023-02-04T03:15:31.535Z,34.33
2023-02-04T03:18:01.275Z,32.90
2023-02-04T03:20:32.321Z,32.20
2023-02-04T03:23:00.821Z,31.30
2023-02-04T03:25:29.415Z,31.10
2023-02-04T03:28:00.804Z,30.80
2023-02-04T03:30:29.665Z,30.70
2023-02-04T03:32:58.550Z,30.80
2023-02-04T03:35:26.556Z,30.73
2023-02-04T03:37:54.760Z,31.10
2023-02-04T03:40:22.805Z,30.40
2023-02-04T03:42:50.880Z,30.70
2023-02-04T03:45:20.416Z,30.27
2023-02-04T03:47:48.509Z,29.27
2023-02-04T03:50:17.126Z,29.20
2023-02-04T03:52:45.757Z,28.97
2023-02-04T03:55:13.883Z,29.90
2023-02-04T03:57:41.972Z,29.77
2023-02-04T04:00:11.366Z,30.20
2023-02-04T04:02:43.469Z,30.87
2023-02-04T04:05:12.278Z,30.70
2023-02-04T04:07:40.301Z,30.83
2023-02-04T04:10:09.026Z,31.20
2023-02-04T04:12:37.080Z,32.00
2023-02-04T04:15:06.137Z,32.00
2023-02-04T04:17:34.187Z,32.73
2023-02-04T04:20:03.615Z,31.33
2023-02-04T04:22:31.732Z,30.27
2023-02-04T04:24:59.810Z,29.23
2023-02-04T04:27:29.237Z,30.40
2023-02-04T04:29:57.368Z,30.97
2023-02-04T04:32:26.094Z,32.20
2023-02-04T04:34:54.108Z,33.93
2023-02-04T04:37:23.558Z,34.77
2023-02-04T04:39:51.651Z,36.03
2023-02-04T04:42:19.742Z,38.53
2023-02-04T04:44:47.919Z,38.33
2023-02-04T04:47:16.204Z,38.47
2023-02-04T04:49:44.302Z,37.27
2023-02-04T04:52:12.339Z,36.63
2023-02-04T04:54:41.750Z,35.03
2023-02-04T04:57:09.759Z,34.37
2023-02-04T04:59:37.785Z,31.57
2023-02-04T05:02:05.790Z,33.13
2023-02-04T05:04:33.932Z,33.27
2023-02-04T05:07:02.031Z,33.37
2023-02-04T05:09:30.769Z,32.10
2023-02-04T05:12:00.180Z,28.17
2023-02-04T05:14:28.285Z,26.30
2023-02-04T05:16:56.312Z,26.93
2023-02-04T05:19:24.422Z,27.53
2023-02-04T05:21:52.469Z,29.27
2023-02-04T05:24:20.520Z,28.03
2023-02-04T05:26:48.766Z,28.97
2023-02-04T05:29:18.232Z,28.40
2023-02-04T05:31:46.339Z,28.17
2023-02-04T05:34:14.442Z,28.57
2023-02-04T05:36:42.497Z,27.43
2023-02-04T05:39:10.599Z,27.57
2023-02-04T05:41:39.661Z,27.60
2023-02-04T05:44:07.742Z,28.07
2023-02-04T05:46:37.796Z,28.97
2023-02-04T05:49:06.027Z,28.57
2023-02-04T05:51:34.099Z,28.23
2023-02-04T05:54:02.185Z,27.73
2023-02-04T05:56:30.313Z,27.80
2023-02-04T05:58:58.418Z,28.03
2023-02-04T06:01:26.497Z,28.83
2023-02-04T06:03:55.933Z,28.37
2023-02-04T06:06:23.993Z,28.50
2023-02-04T06:08:52.038Z,27.23
2023-02-04T06:11:20.082Z,27.30
2023-02-04T06:13:48.141Z,27.20
2023-02-04T06:16:16.269Z,27.30
2023-02-04T06:18:44.417Z,26.63
2023-02-04T06:21:13.812Z,27.90
2023-02-04T06:23:41.892Z,26.40
2023-02-04T06:26:10.073Z,26.43
2023-02-04T06:28:38.540Z,25.70
2023-02-04T06:31:07.113Z,24.27
2023-02-04T06:33:35.183Z,23.87
2023-02-04T06:36:03.366Z,22.67
2023-02-04T06:38:32.861Z,22.97
2023-02-04T06:41:00.887Z,20.73
2023-02-04T06:43:28.947Z,19.53
2023-02-04T06:45:57.013Z,18.63
2023-02-04T06:48:25.147Z,17.10
2023-02-04T06:50:53.321Z,16.43
2023-02-04T06:53:21.383Z,16.00
2023-02-04T06:55:50.806Z,15.20
2023-02-04T06:58:18.861Z,14.67
2023-02-04T07:00:46.962Z,13.97
2023-02-04T07:03:15.059Z,13.97
2023-02-04T07:05:43.195Z,12.50
2023-02-04T07:08:11.289Z,11.97
2023-02-04T07:10:39.379Z,12.30
2023-02-04T07:13:08.796Z,12.00
2023-02-04T07:15:36.907Z,12.20
2023-02-04T07:18:05.112Z,12.37
2023-02-04T07:20:33.516Z,11.57
2023-02-04T07:23:01.946Z,11.30
2023-02-04T07:25:30.004Z,11.90
2023-02-04T07:27:59.476Z,12.33
2023-02-04T07:30:29.120Z,12.50
2023-02-04T07:32:57.172Z,11.30
2023-02-04T07:35:25.412Z,11.60
2023-02-04T07:37:53.456Z,11.30
2023-02-04T07:40:21.938Z,11.40
2023-02-04T07:42:49.988Z,11.33
2023-02-04T07:45:19.977Z,12.20
2023-02-04T07:47:49.509Z,10.13
2023-02-04T07:50:17.967Z,10.77
2023-02-04T07:52:46.045Z,9.80
2023-02-04T07:55:14.272Z,9.53
2023-02-04T07:57:42.356Z,9.30
2023-02-04T08:00:14.181Z,8.80
2023-02-04T08:02:42.946Z,8.83
2023-02-04T08:05:12.476Z,8.53
2023-02-04T08:07:40.607Z,8.67
2023-02-04T08:10:10.248Z,8.47
2023-02-04T08:12:38.579Z,8.83
2023-02-04T08:15:08.572Z,8.37
2023-02-04T08:17:36.703Z,8.10
2023-02-04T08:20:05.732Z,7.63
2023-02-04T08:22:35.538Z,7.93
2023-02-04T08:25:05.346Z,7.43
2023-02-04T08:27:33.410Z,8.40
2023-02-04T08:30:01.446Z,7.67
2023-02-04T08:32:31.246Z,7.60
2023-02-04T08:34:59.542Z,8.10
2023-02-04T08:37:27.666Z,6.80
2023-02-04T08:39:57.261Z,6.70
2023-02-04T08:42:25.399Z,6.73
2023-02-04T08:44:53.586Z,6.17
2023-02-04T08:47:21.687Z,6.80
2023-02-04T08:49:49.700Z,5.80
2023-02-04T08:52:17.762Z,5.73
2023-02-04T08:54:45.914Z,6.30
2023-02-04T08:57:15.478Z,7.20
2023-02-04T08:59:43.516Z,6.23
2023-02-04T09:02:11.628Z,6.53
2023-02-04T09:04:39.689Z,6.93
2023-02-04T09:07:07.755Z,6.37
2023-02-04T09:09:35.848Z,7.07
2023-02-04T09:12:04.179Z,6.27
2023-02-04T09:14:33.612Z,6.93
2023-02-04T09:17:01.671Z,6.60
2023-02-04T09:19:29.708Z,6.70
2023-02-04T09:21:57.774Z,7.43
2023-02-04T09:24:25.861Z,6.53
2023-02-04T09:26:53.932Z,6.80
2023-02-04T09:29:22.019Z,7.00
2023-02-04T09:31:51.766Z,6.20
2023-02-04T09:34:20.548Z,5.93
2023-02-04T09:36:48.671Z,6.40
2023-02-04T09:39:16.758Z,6.20
2023-02-04T09:41:45.096Z,6.27
2023-02-04T09:44:16.853Z,7.00
2023-02-04T09:46:48.223Z,6.00
2023-02-04T09:49:17.970Z,6.90
2023-02-04T09:51:48.126Z,6.40
2023-02-04T09:54:18.294Z,6.33
2023-02-04T09:56:46.968Z,6.50
2023-02-04T09:59:17.294Z,9.20
2023-02-04T10:01:45.451Z,8.13
2023-02-04T10:04:15.569Z,8.73
2023-02-04T10:06:45.566Z,9.17
2023-02-04T10:09:15.742Z,8.53
2023-02-04T10:11:45.886Z,8.87
2023-02-04T10:14:17.839Z,8.90
2023-02-04T10:16:51.378Z,8.53
2023-02-04T10:19:19.508Z,8.60
2023-02-04T10:21:49.356Z,9.83
2023-02-04T10:24:19.914Z,9.53
2023-02-04T10:26:48.599Z,9.30
2023-02-04T10:29:18.552Z,9.77
2023-02-04T10:31:48.827Z,8.30
2023-02-04T10:34:19.902Z,7.57
2023-02-04T10:36:51.481Z,6.33
2023-02-04T10:39:25.163Z,6.73
2023-02-04T10:41:54.723Z,6.23
2023-02-04T10:44:28.774Z,6.00
2023-02-04T10:47:03.849Z,5.60
2023-02-04T10:49:32.298Z,6.10
2023-02-04T10:52:03.926Z,5.40
2023-02-04T10:54:37.673Z,5.33
2023-02-04T10:57:15.895Z,4.80
2023-02-04T10:59:44.769Z,4.73
2023-02-04T11:02:41.742Z,4.67
2023-02-04T11:05:14.057Z,4.43
2023-02-04T11:07:44.176Z,4.50
2023-02-04T11:10:15.274Z,5.13
2023-02-04T11:12:45.251Z,4.57
2023-02-04T11:15:38.331Z,5.03
2023-02-04T11:18:08.298Z,4.90
2023-02-04T11:20:39.955Z,4.20
2023-02-04T11:23:35.268Z,4.17
2023-02-04T11:26:09.599Z,3.80
2023-02-04T11:28:47.536Z,3.87
2023-02-04T11:31:27.666Z,4.23
2023-02-04T11:34:10.754Z,4.07
2023-02-04T11:36:52.576Z,4.67
2023-02-04T11:39:22.225Z,4.33
2023-02-04T11:41:50.342Z,5.03
2023-02-04T11:44:19.807Z,4.63
2023-02-04T11:46:51.669Z,4.80
2023-02-04T11:49:21.640Z,4.80
2023-02-04T11:51:49.702Z,4.27
2023-02-04T11:54:19.280Z,4.00
2023-02-04T11:56:49.323Z,4.20
2023-02-04T11:59:21.483Z,4.33
2023-02-04T12:01:49.612Z,3.43
2023-02-04T12:04:24.611Z,3.90
2023-02-04T12:07:00.304Z,3.77
2023-02-04T12:09:31.012Z,3.80
2023-02-04T12:12:02.229Z,4.60
2023-02-04T12:14:33.515Z,4.77
2023-02-04T12:17:02.250Z,4.50
2023-02-04T12:19:30.258Z,4.80
2023-02-04T12:21:58.319Z,5.00
2023-02-04T12:24:26.377Z,4.93
2023-02-04T12:26:54.425Z,3.70
2023-02-04T12:29:23.848Z,4.60
2023-02-04T12:31:51.946Z,4.53
2023-02-04T12:34:20.065Z,4.47
2023-02-04T12:36:48.095Z,4.00
2023-02-04T12:39:16.182Z,3.77
2023-02-04T12:41:45.103Z,3.83
2023-02-04T12:44:13.164Z,3.40
2023-02-04T12:46:42.654Z,3.87
2023-02-04T12:49:10.702Z,3.10
2023-02-04T12:51:38.791Z,3.40
2023-02-04T12:54:06.901Z,2.97
2023-02-04T12:56:34.980Z,3.20
2023-02-04T12:59:03.085Z,2.57
2023-02-04T13:01:31.203Z,3.27
2023-02-04T13:04:00.689Z,3.23
2023-02-04T13:06:28.858Z,2.60
2023-02-04T13:08:56.916Z,3.23
2023-02-04T13:11:24.950Z,3.40
2023-02-04T13:13:53.152Z,2.73
2023-02-04T13:16:24.269Z,2.63
2023-02-04T13:18:52.372Z,3.30
2023-02-04T13:21:21.809Z,2.63
2023-02-04T13:23:49.854Z,3.80
2023-02-04T13:26:17.917Z,3.60
2023-02-04T13:28:46.044Z,4.00
2023-02-04T13:31:14.284Z,3.70
2023-02-04T13:33:42.375Z,3.63
2023-02-04T13:36:10.492Z,3.70
2023-02-04T13:38:39.931Z,4.40
2023-02-04T13:41:07.988Z,3.77
2023-02-04T13:43:36.569Z,3.80
2023-02-04T13:46:06.258Z,3.10
2023-02-04T13:48:36.492Z,3.80
2023-02-04T13:51:05.040Z,3.60
2023-02-04T13:53:33.065Z,3.17
2023-02-04T13:56:02.584Z,4.77
2023-02-04T13:58:30.666Z,4.37
2023-02-04T14:00:58.800Z,4.00
2023-02-04T14:03:26.906Z,5.63
2023-02-04T14:05:55.753Z,3.80
2023-02-04T14:08:24.737Z,3.57
2023-02-04T14:10:52.767Z,3.67
2023-02-04T14:13:22.171Z,4.00
2023-02-04T14:15:50.301Z,3.43
2023-02-04T14:18:18.295Z,6.17
2023-02-04T14:20:46.539Z,5.50
2023-02-04T14:23:14.604Z,5.50
2023-02-04T14:25:42.872Z,6.80
2023-02-04T14:28:10.999Z,5.07
2023-02-04T14:30:40.465Z,4.87
2023-02-04T14:33:09.025Z,5.67
2023-02-04T14:35:37.712Z,5.70
2023-02-04T14:38:05.951Z,6.10
2023-02-04T14:40:34.181Z,5.40
2023-02-04T14:43:02.327Z,4.93
2023-02-04T14:45:30.392Z,6.47
2023-02-04T14:48:01.432Z,6.30
2023-02-04T14:50:30.739Z,5.93
2023-02-04T14:52:58.843Z,4.83
2023-02-04T14:55:27.903Z,5.60
2023-02-04T14:57:55.944Z,5.87
2023-02-04T15:00:24.164Z,6.30
2023-02-04T15:02:52.844Z,6.07
2023-02-04T15:05:22.332Z,5.53
2023-02-04T15:07:50.411Z,5.13
2023-02-04T15:10:18.459Z,5.00
2023-02-04T15:12:46.693Z,6.20
2023-02-04T15:15:14.883Z,6.43
2023-02-04T15:17:42.969Z,6.63
2023-02-04T15:20:12.566Z,5.70
2023-02-04T15:22:42.038Z,8.40
2023-02-04T15:25:11.796Z,19.67
2023-02-04T15:27:39.976Z,7.37
2023-02-04T15:30:09.852Z,4.70
2023-02-04T15:32:38.004Z,4.93
2023-02-04T15:35:08.271Z,5.43
2023-02-04T15:37:36.429Z,5.03
2023-02-04T15:40:06.758Z,5.77
2023-02-04T15:42:35.080Z,5.40
2023-02-04T15:45:03.091Z,5.67
2023-02-04T15:47:31.223Z,6.00
2023-02-04T15:49:59.317Z,6.60
2023-02-04T15:52:29.201Z,6.33
2023-02-04T15:54:57.457Z,5.90
2023-02-04T15:57:26.925Z,6.40
2023-02-04T15:59:55.222Z,5.93
2023-02-04T16:02:23.282Z,6.37
2023-02-04T16:04:51.664Z,6.10
2023-02-04T16:07:19.739Z,7.10
2023-02-04T16:09:47.805Z,6.70
2023-02-04T16:12:15.847Z,8.00
2023-02-04T16:14:45.247Z,8.20
2023-02-04T16:17:13.290Z,8.50
2023-02-04T16:19:41.602Z,9.00
2023-02-04T16:22:09.632Z,9.27
2023-02-04T16:24:38.669Z,13.63
2023-02-04T16:27:06.962Z,10.73
2023-02-04T16:29:35.082Z,11.70
2023-02-04T16:32:04.574Z,12.00
2023-02-04T16:34:32.573Z,12.57
2023-02-04T16:37:00.627Z,12.43
2023-02-04T16:39:28.704Z,10.93
2023-02-04T16:41:56.757Z,11.13
2023-02-04T16:44:24.786Z,10.33
2023-02-04T16:46:52.861Z,11.60
2023-02-04T16:49:23.301Z,11.67
2023-02-04T16:51:51.411Z,12.40
2023-02-04T16:54:19.475Z,12.73
2023-02-04T16:56:47.669Z,13.43
2023-02-04T16:59:16.170Z,13.80
2023-02-04T17:01:44.242Z,12.80
2023-02-04T17:04:12.408Z,12.77
2023-02-04T17:06:42.575Z,12.00
2023-02-04T17:09:10.743Z,12.47
2023-02-04T17:11:38.813Z,11.33
2023-02-04T17:14:08.706Z,11.57
2023-02-04T17:16:36.895Z,11.93
2023-02-04T17:19:05.595Z,11.60
2023-02-04T17:21:33.668Z,11.63
2023-02-04T17:24:04.394Z,11.40
2023-02-04T17:26:37.219Z,11.00
2023-02-04T17:29:06.277Z,11.33
2023-02-04T17:31:34.998Z,10.73
2023-02-04T17:34:03.246Z,11.30
2023-02-04T17:36:32.469Z,13.07
2023-02-04T17:39:02.086Z,13.03
2023-02-04T17:41:31.040Z,12.13
2023-02-04T17:44:00.141Z,12.73
2023-02-04T17:46:28.392Z,14.27
2023-02-04T17:48:56.503Z,14.80
2023-02-04T17:51:24.534Z,16.30
2023-02-04T17:53:52.624Z,16.87
2023-02-04T17:56:22.114Z,18.47
2023-02-04T17:58:50.654Z,18.00
2023-02-04T18:01:21.884Z,19.63
2023-02-04T18:03:50.890Z,18.53
2023-02-04T18:06:24.045Z,18.73
2023-02-04T18:08:56.509Z,18.83
2023-02-04T18:11:28.252Z,20.87
2023-02-04T18:14:00.962Z,20.77
2023-02-04T18:16:31.214Z,18.87
2023-02-04T18:19:06.707Z,17.50
2023-02-04T18:21:34.881Z,18.00
2023-02-04T18:24:13.162Z,17.30
2023-02-04T18:26:46.346Z,18.67
2023-02-04T18:29:32.202Z,23.53
2023-02-04T18:32:02.880Z,17.80
2023-02-04T18:34:37.343Z,18.43
2023-02-04T18:37:30.717Z,18.87
2023-02-04T18:40:19.700Z,18.53
2023-02-04T18:42:49.772Z,20.17
2023-02-04T18:45:24.156Z,20.57
2023-02-04T18:47:55.248Z,20.80
2023-02-04T18:50:29.726Z,23.33
2023-02-04T18:53:01.477Z,22.87
2023-02-04T18:55:35.652Z,23.30
2023-02-04T18:58:27.380Z,25.03
2023-02-04T19:01:02.161Z,20.47
2023-02-04T19:03:33.423Z,19.07
2023-02-04T19:06:03.261Z,86.57
2023-02-04T19:08:41.793Z,22.57
2023-02-04T19:11:28.720Z,23.17
2023-02-04T19:14:00.516Z,23.40
2023-02-04T19:16:36.581Z,23.83
2023-02-04T19:19:24.715Z,21.60
2023-02-04T19:21:52.878Z,21.13
2023-02-04T19:24:23.254Z,20.97
2023-02-04T19:26:55.706Z,19.13
2023-02-04T19:29:39.243Z,16.93
2023-02-04T19:32:24.780Z,15.57
2023-02-04T19:34:54.326Z,14.40
2023-02-04T19:37:26.632Z,14.37
2023-02-04T19:39:55.757Z,14.17
2023-02-04T19:42:32.859Z,13.43
2023-02-04T19:45:04.069Z,13.10
2023-02-04T19:47:42.100Z,12.90
2023-02-04T19:50:33.093Z,13.73
2023-02-04T19:53:03.514Z,12.97
2023-02-04T19:55:35.008Z,13.17
2023-02-04T19:58:18.651Z,13.00
2023-02-04T20:00:55.835Z,12.70
2023-02-04T20:03:31.452Z,13.53
2023-02-04T20:06:03.695Z,13.83
2023-02-04T20:08:47.553Z,12.17
2023-02-04T20:11:43.450Z,12.87
2023-02-04T20:14:29.770Z,12.10
2023-02-04T20:17:00.556Z,12.17
2023-02-04T20:19:35.698Z,11.63
2023-02-04T20:22:38.950Z,12.27
2023-02-04T20:25:41.686Z,11.93
2023-02-04T20:28:35.130Z,12.67
2023-02-04T20:31:12.428Z,11.63
2023-02-04T20:33:48.632Z,12.20
2023-02-04T20:36:34.657Z,10.57
2023-02-04T20:39:27.760Z,10.83
2023-02-04T20:42:00.193Z,12.03
2023-02-04T20:44:35.859Z,12.27
2023-02-04T20:47:14.653Z,11.80
2023-02-04T20:49:48.027Z,12.27
2023-02-04T20:52:51.163Z,12.87
2023-02-04T20:55:26.850Z,13.67
2023-02-04T20:58:02.991Z,13.90
2023-02-04T21:00:34.705Z,14.97
2023-02-04T21:03:17.456Z,15.03
2023-02-04T21:05:49.375Z,16.47
2023-02-04T21:08:27.696Z,16.60
2023-02-04T21:10:56.500Z,16.73
2023-02-04T21:13:24.777Z,17.83
2023-02-04T21:15:53.732Z,17.90
2023-02-04T21:18:22.123Z,18.57
2023-02-04T21:20:52.560Z,19.27
2023-02-04T21:23:21.265Z,19.90
2023-02-04T21:25:49.471Z,20.90
2023-02-04T21:28:17.560Z,19.47
2023-02-04T21:30:45.811Z,20.83
2023-02-04T21:33:16.608Z,21.50
2023-02-04T21:35:45.108Z,23.07
2023-02-04T21:38:14.546Z,21.67
2023-02-04T21:40:42.683Z,20.77
2023-02-04T21:43:10.764Z,21.63
2023-02-04T21:45:39.896Z,21.73
2023-02-04T21:48:08.952Z,19.37
2023-02-04T21:50:38.583Z,19.07
2023-02-04T21:53:07.461Z,18.33
2023-02-04T21:55:37.726Z,17.80
2023-02-04T21:58:07.258Z,17.03
2023-02-04T22:00:35.399Z,16.30
2023-02-04T22:03:03.565Z,16.00
2023-02-04T22:05:31.892Z,15.30
2023-02-04T22:08:00.192Z,14.83
2023-02-04T22:10:28.269Z,15.00
2023-02-04T22:12:57.637Z,14.67
2023-02-04T22:15:25.659Z,14.60
2023-02-04T22:17:54.660Z,14.67
2023-02-04T22:20:25.360Z,15.13
2023-02-04T22:22:53.940Z,14.97
2023-02-04T22:25:22.869Z,15.13
2023-02-04T22:27:51.141Z,15.00
2023-02-04T22:30:20.993Z,14.57
2023-02-04T22:32:49.175Z,14.67
2023-02-04T22:35:17.963Z,15.07
2023-02-04T22:37:46.061Z,14.60
2023-02-04T22:40:14.849Z,14.70
2023-02-04T22:42:43.007Z,14.40
2023-02-04T22:45:11.423Z,14.90
2023-02-04T22:47:40.956Z,15.40
2023-02-04T22:50:09.734Z,14.77
2023-02-04T22:52:37.897Z,15.20
2023-02-04T22:55:06.673Z,15.83
2023-02-04T22:57:34.754Z,15.37
2023-02-04T23:00:02.877Z,16.10
2023-02-04T23:02:30.938Z,16.53
2023-02-04T23:05:00.364Z,16.53
2023-02-04T23:07:28.424Z,16.77
2023-02-04T23:09:56.494Z,15.80
2023-02-04T23:12:24.561Z,16.37
2023-02-04T23:14:52.699Z,15.80
2023-02-04T23:17:20.759Z,16.53
2023-02-04T23:19:48.806Z,15.33
2023-02-04T23:22:18.378Z,14.93
2023-02-04T23:24:46.448Z,16.03
2023-02-04T23:27:14.568Z,16.23
2023-02-04T23:29:42.610Z,17.20
2023-02-04T23:32:10.882Z,16.57
2023-02-04T23:34:38.937Z,16.83
2023-02-04T23:37:07.007Z,15.80
2023-02-04T23:39:36.478Z,16.47
2023-02-04T23:42:04.664Z,14.10
2023-02-04T23:44:32.696Z,13.03
2023-02-04T23:47:00.828Z,12.20
2023-02-04T23:49:28.901Z,10.97
2023-02-04T23:51:56.965Z,10.70
2023-02-04T23:54:24.982Z,10.40
2023-02-04T23:56:54.615Z,10.30
2023-02-04T23:59:22.624Z,10.10
